createdAt,value
2018-09-03T00:00:02.328Z,54.41
2018-09-03T00:02:32.709Z,54.88
2018-09-03T00:05:02.714Z,55.57
2018-09-03T00:07:35.602Z,54.59
2018-09-03T00:10:08.540Z,54.79
2018-09-03T00:12:38.514Z,54.72
2018-09-03T00:15:11.031Z,55.73
2018-09-03T00:17:41.958Z,55.39
2018-09-03T00:20:12.148Z,55.06
2018-09-03T00:22:42.080Z,55.09
2018-09-03T00:25:15.801Z,55.38
2018-09-03T00:27:45.805Z,55.58
2018-09-03T00:30:15.829Z,55.50
2018-09-03T00:32:50.836Z,55.47
2018-09-03T00:35:25.829Z,55.97
2018-09-03T00:38:59.576Z,55.86
2018-09-03T00:41:34.450Z,56.21
2018-09-03T00:44:09.312Z,55.39
2018-09-03T00:46:44.386Z,56.01
2018-09-03T00:49:14.998Z,55.79
2018-09-03T00:51:45.060Z,56.29
2018-09-03T00:54:15.414Z,57.21
2018-09-03T00:56:45.667Z,56.50
2018-09-03T00:59:15.591Z,55.89
2018-09-03T01:01:45.647Z,55.99
2018-09-03T01:04:16.267Z,56.78
2018-09-03T01:06:46.465Z,57.27
2018-09-03T01:09:16.717Z,57.14
2018-09-03T01:11:46.902Z,56.45
2018-09-03T01:14:17.133Z,56.00
2018-09-03T01:16:47.602Z,56.87
2018-09-03T01:19:17.883Z,56.87
2018-09-03T01:21:48.254Z,57.07
2018-09-03T01:24:18.384Z,56.98
2018-09-03T01:26:48.829Z,57.18
2018-09-03T01:29:18.783Z,55.87
2018-09-03T01:31:49.160Z,56.07
2018-09-03T01:34:19.465Z,56.00
2018-09-03T01:36:50.075Z,56.90
2018-09-03T01:39:20.486Z,56.24
2018-09-03T01:41:50.832Z,57.04
2018-09-03T01:44:21.172Z,56.91
2018-09-03T01:46:51.555Z,57.45
2018-09-03T01:49:21.839Z,56.61
2018-09-03T01:54:48.081Z,56.82
2018-09-03T01:57:18.025Z,57.42
2018-09-03T01:59:47.928Z,57.32
2018-09-03T02:02:17.865Z,56.69
2018-09-03T02:04:47.748Z,56.79
2018-09-03T02:07:18.016Z,57.63
2018-09-03T02:09:50.167Z,57.90
2018-09-03T02:12:20.484Z,57.11
2018-09-03T02:14:52.302Z,57.65
2018-09-03T02:17:22.549Z,57.21
2018-09-03T02:19:53.270Z,57.51
2018-09-03T02:22:25.837Z,57.04
2018-09-03T02:24:55.675Z,56.88
2018-09-03T02:27:30.305Z,57.75
2018-09-03T02:30:00.387Z,58.21
2018-09-03T02:32:30.436Z,57.79
2018-09-03T02:35:03.051Z,57.56
2018-09-03T02:37:33.377Z,57.75
2018-09-03T02:40:03.361Z,57.31
2018-09-03T02:42:33.347Z,57.44
2018-09-03T02:45:03.420Z,57.18
2018-09-03T02:47:33.301Z,57.91
2018-09-03T02:50:03.163Z,57.21
2018-09-03T02:52:33.241Z,58.10
2018-09-03T02:55:03.026Z,58.20
2018-09-03T02:57:33.572Z,58.38
2018-09-03T03:00:06.011Z,58.29
2018-09-03T03:02:38.766Z,58.42
2018-09-03T03:05:09.130Z,58.72
2018-09-03T03:07:39.214Z,58.02
2018-09-03T03:10:11.594Z,58.12
2018-09-03T03:12:41.680Z,59.09
2018-09-03T03:15:15.934Z,59.12
2018-09-03T03:17:46.203Z,59.14
2018-09-03T03:20:16.208Z,58.60
2018-09-03T03:22:46.664Z,59.53
2018-09-03T03:25:16.955Z,59.44
2018-09-03T03:27:47.197Z,59.62
2018-09-03T03:30:19.638Z,60.37
2018-09-03T03:32:53.383Z,59.64
2018-09-03T03:35:23.829Z,60.43
2018-09-03T03:37:53.784Z,60.63
2018-09-03T03:40:23.757Z,60.25
2018-09-03T03:42:53.697Z,60.62
2018-09-03T03:45:23.996Z,60.34
2018-09-03T03:47:54.085Z,60.48
2018-09-03T03:50:24.070Z,60.72
2018-09-03T03:52:54.216Z,60.98
2018-09-03T03:55:24.133Z,60.69
2018-09-03T03:57:54.136Z,60.42
2018-09-03T04:00:24.299Z,60.63
2018-09-03T04:02:54.397Z,60.34
2018-09-03T04:05:24.475Z,61.41
2018-09-03T04:07:54.300Z,60.80
2018-09-03T04:10:24.305Z,60.19
2018-09-03T04:12:58.582Z,59.83
2018-09-03T04:15:28.416Z,60.14
2018-09-03T04:17:58.456Z,60.74
2018-09-03T04:20:28.316Z,60.70
2018-09-03T04:22:58.455Z,61.17
2018-09-03T04:25:28.482Z,60.79
2018-09-03T04:27:58.672Z,60.80
2018-09-03T04:30:28.582Z,61.42
2018-09-03T04:32:58.472Z,61.04
2018-09-03T04:35:28.457Z,61.66
2018-09-03T04:37:58.242Z,61.56
2018-09-03T04:40:39.734Z,61.87
2018-09-03T04:43:09.740Z,61.64
2018-09-03T04:45:40.250Z,61.16
2018-09-03T04:48:10.386Z,61.68
2018-09-03T04:50:40.356Z,61.57
2018-09-03T04:53:10.654Z,61.20
2018-09-03T04:55:41.024Z,61.37
2018-09-03T04:58:11.482Z,61.65
2018-09-03T05:00:41.464Z,61.15
2018-09-03T05:03:11.632Z,61.96
2018-09-03T05:05:41.775Z,62.12
2018-09-03T05:08:12.045Z,61.52
2018-09-03T05:10:42.572Z,62.36
2018-09-03T05:13:12.923Z,62.76
2018-09-03T05:15:43.270Z,62.09
2018-09-03T05:18:13.261Z,62.03
2018-09-03T05:20:44.002Z,62.37
2018-09-03T05:23:14.621Z,62.05
2018-09-03T05:25:45.658Z,62.37
2018-09-03T05:28:16.123Z,61.93
2018-09-03T05:30:48.118Z,62.47
2018-09-03T05:33:18.695Z,62.36
2018-09-03T05:35:48.942Z,62.14
2018-09-03T05:38:19.331Z,62.14
2018-09-03T05:40:49.483Z,63.05
2018-09-03T05:43:20.027Z,62.06
2018-09-03T05:45:49.972Z,62.90
2018-09-03T05:48:20.411Z,61.94
2018-09-03T05:50:51.152Z,62.52
2018-09-03T05:56:21.300Z,61.91
2018-09-03T05:58:51.961Z,61.50
2018-09-03T06:01:22.092Z,61.64
2018-09-03T06:03:52.195Z,62.22
2018-09-03T06:06:23.891Z,61.24
2018-09-03T06:08:54.304Z,61.88
2018-09-03T06:11:24.642Z,62.63
2018-09-03T06:13:54.878Z,62.55
2018-09-03T06:16:25.344Z,62.88
2018-09-03T06:18:55.496Z,63.09
2018-09-03T06:21:25.596Z,62.80
2018-09-03T06:23:55.697Z,62.18
2018-09-03T06:26:26.326Z,62.56
2018-09-03T06:28:56.235Z,63.37
2018-09-03T06:31:26.250Z,62.67
2018-09-03T06:33:56.725Z,63.43
2018-09-03T06:36:26.914Z,63.22
2018-09-03T06:38:57.302Z,62.60
2018-09-03T06:41:27.924Z,62.91
2018-09-03T06:43:58.000Z,62.84
2018-09-03T06:46:28.039Z,63.21
2018-09-03T06:48:58.267Z,63.67
2018-09-03T06:51:28.553Z,64.24
2018-09-03T06:53:58.975Z,63.44
2018-09-03T06:56:29.206Z,63.54
2018-09-03T06:59:02.046Z,64.74
2018-09-03T07:01:32.362Z,64.22
2018-09-03T07:04:02.567Z,64.85
2018-09-03T07:06:33.217Z,64.55
2018-09-03T07:09:13.530Z,64.54
2018-09-03T07:11:43.300Z,64.95
2018-09-03T07:14:13.484Z,65.05
2018-09-03T07:16:43.311Z,64.17
2018-09-03T07:19:13.055Z,65.04
2018-09-03T07:21:42.899Z,64.59
2018-09-03T07:24:31.537Z,64.10
2018-09-03T07:27:01.590Z,63.74
2018-09-03T07:29:31.719Z,64.29
2018-09-03T07:32:01.948Z,63.77
2018-09-03T07:34:31.827Z,64.17
2018-09-03T07:37:02.100Z,64.76
2018-09-03T07:39:31.943Z,63.58
2018-09-03T07:42:01.980Z,64.02
2018-09-03T07:44:31.877Z,64.53
2018-09-03T07:47:01.804Z,65.35
2018-09-03T07:49:31.643Z,64.82
2018-09-03T07:52:01.766Z,64.58
2018-09-03T07:54:31.791Z,65.03
2018-09-03T07:57:02.374Z,65.05
2018-09-03T07:59:32.370Z,65.79
2018-09-03T08:02:03.096Z,66.21
2018-09-03T08:04:33.496Z,65.76
2018-09-03T08:07:03.930Z,66.03
2018-09-03T08:09:34.443Z,65.24
2018-09-03T08:12:04.834Z,65.57
2018-09-03T08:14:35.122Z,64.63
2018-09-03T08:17:05.545Z,65.73
2018-09-03T08:19:35.930Z,65.82
2018-09-03T08:22:06.697Z,65.03
2018-09-03T08:24:37.522Z,66.29
2018-09-03T08:27:07.568Z,65.86
2018-09-03T08:29:37.832Z,66.30
2018-09-03T08:32:08.379Z,65.87
2018-09-03T08:34:38.862Z,66.61
2018-09-03T08:37:09.356Z,66.45
2018-09-03T08:39:39.661Z,65.91
2018-09-03T08:42:10.334Z,66.08
2018-09-03T08:44:40.806Z,66.38
2018-09-03T08:47:11.468Z,65.23
2018-09-03T08:49:42.108Z,66.47
2018-09-03T08:52:12.459Z,67.31
2018-09-03T08:54:42.812Z,67.15
2018-09-03T08:57:12.973Z,67.97
2018-09-03T08:59:43.510Z,67.60
2018-09-03T09:02:14.076Z,66.16
2018-09-03T09:04:44.569Z,66.70
2018-09-03T09:07:15.087Z,66.82
2018-09-03T09:09:45.443Z,65.58
2018-09-03T09:12:15.715Z,65.71
2018-09-03T09:14:46.193Z,67.59
2018-09-03T09:17:16.570Z,67.27
2018-09-03T09:19:47.059Z,66.45
2018-09-03T09:22:17.514Z,67.41
2018-09-03T09:24:47.769Z,67.32
2018-09-03T09:27:18.306Z,66.57
2018-09-03T09:29:48.625Z,67.00
2018-09-03T09:32:19.395Z,67.30
2018-09-03T09:34:49.801Z,67.78
2018-09-03T09:37:20.136Z,66.89
2018-09-03T09:39:50.613Z,67.29
2018-09-03T09:42:21.076Z,66.03
2018-09-03T09:44:51.520Z,66.28
2018-09-03T09:47:21.500Z,65.62
2018-09-03T09:49:51.867Z,65.08
2018-09-03T09:52:21.904Z,64.56
2018-09-03T09:54:52.061Z,64.47
2018-09-03T09:57:22.108Z,63.81
2018-09-03T09:59:52.468Z,64.92
2018-09-03T10:02:22.299Z,64.25
2018-09-03T10:04:52.405Z,63.92
2018-09-03T10:07:22.424Z,63.94
2018-09-03T10:09:52.535Z,63.67
2018-09-03T10:12:27.967Z,65.05
2018-09-03T10:14:58.294Z,65.66
2018-09-03T10:19:57.844Z,64.39
2018-09-03T10:22:27.912Z,63.90
2018-09-03T10:24:58.025Z,64.11
2018-09-03T10:27:28.220Z,63.76
2018-09-03T10:29:58.091Z,63.36
2018-09-03T10:32:29.288Z,61.89
2018-09-03T10:34:59.241Z,62.10
2018-09-03T10:37:29.501Z,61.92
2018-09-03T10:39:59.594Z,61.28
2018-09-03T10:42:29.572Z,61.17
2018-09-03T10:44:59.635Z,61.03
2018-09-03T10:47:29.503Z,60.84
2018-09-03T10:49:59.514Z,60.82
2018-09-03T10:52:29.571Z,59.96
2018-09-03T10:54:59.684Z,59.50
2018-09-03T10:57:29.875Z,58.58
2018-09-03T11:00:00.102Z,59.52
2018-09-03T11:02:31.003Z,58.70
2018-09-03T11:05:01.381Z,59.75
2018-09-03T11:07:31.435Z,60.38
2018-09-03T11:10:01.283Z,59.91
2018-09-03T11:12:31.398Z,61.02
2018-09-03T11:15:01.227Z,62.15
2018-09-03T11:20:08.240Z,61.44
2018-09-03T11:22:38.005Z,60.56
2018-09-03T11:25:08.237Z,60.22
2018-09-03T11:27:38.047Z,61.03
2018-09-03T11:30:08.797Z,60.54
2018-09-03T11:32:38.766Z,60.58
2018-09-03T11:35:08.625Z,62.02
2018-09-03T11:37:38.567Z,61.63
2018-09-03T11:40:08.512Z,62.20
2018-09-03T11:42:38.580Z,61.67
2018-09-03T11:45:08.551Z,62.08
2018-09-03T11:47:38.301Z,62.39
2018-09-03T11:50:08.452Z,62.40
2018-09-03T11:52:38.757Z,62.18
2018-09-03T11:55:08.868Z,62.54
2018-09-03T11:57:38.899Z,61.80
2018-09-03T12:00:13.622Z,61.93
2018-09-03T12:02:43.514Z,63.07
2018-09-03T12:05:13.371Z,62.17
2018-09-03T12:07:43.411Z,62.23
2018-09-03T12:10:13.674Z,62.01
2018-09-03T12:12:43.663Z,60.41
2018-09-03T12:15:24.897Z,60.28
2018-09-03T12:17:55.329Z,61.00
2018-09-03T12:20:25.587Z,62.29
2018-09-03T12:22:55.681Z,61.92
2018-09-03T12:25:25.564Z,61.81
2018-09-03T12:27:55.896Z,61.33
2018-09-03T12:30:25.779Z,59.97
2018-09-03T12:32:55.902Z,60.01
2018-09-03T12:35:26.224Z,60.31
2018-09-03T12:37:56.370Z,61.08
2018-09-03T12:40:26.542Z,61.17
2018-09-03T12:42:56.674Z,60.06
2018-09-03T12:46:04.040Z,59.16
2018-09-03T12:48:34.276Z,59.14
2018-09-03T12:51:05.046Z,60.25
2018-09-03T12:53:36.231Z,60.22
2018-09-03T12:56:06.423Z,60.33
2018-09-03T12:58:36.678Z,60.66
2018-09-03T13:01:07.032Z,61.91
2018-09-03T13:03:36.858Z,61.83
2018-09-03T13:06:07.879Z,61.89
2018-09-03T13:08:37.969Z,62.31
2018-09-03T13:11:07.932Z,62.54
2018-09-03T13:13:37.873Z,63.42
2018-09-03T13:16:08.027Z,62.48
2018-09-03T13:18:38.015Z,62.65
2018-09-03T13:21:08.721Z,63.52
2018-09-03T13:23:38.623Z,63.00
2018-09-03T13:26:08.685Z,63.01
2018-09-03T13:28:38.694Z,61.40
2018-09-03T13:31:08.795Z,61.68
2018-09-03T13:33:38.975Z,61.07
2018-09-03T13:36:09.319Z,60.31
2018-09-03T13:38:39.204Z,59.34
2018-09-03T13:41:09.138Z,60.47
2018-09-03T13:43:39.667Z,61.13
2018-09-03T13:46:09.862Z,60.56
2018-09-03T13:48:39.817Z,60.59
2018-09-03T13:51:10.156Z,59.50
2018-09-03T13:53:40.121Z,59.74
2018-09-03T13:56:10.023Z,60.67
2018-09-03T13:58:39.974Z,60.55
2018-09-03T14:01:09.828Z,59.83
2018-09-03T14:03:39.793Z,59.40
2018-09-03T14:06:09.828Z,60.03
2018-09-03T14:08:39.928Z,59.87
2018-09-03T14:11:09.996Z,59.53
2018-09-03T14:13:40.155Z,60.78
2018-09-03T14:16:10.053Z,59.94
2018-09-03T14:18:40.032Z,59.00
2018-09-03T14:21:10.100Z,60.28
2018-09-03T14:23:40.374Z,59.96
2018-09-03T14:26:10.318Z,58.99
2018-09-03T14:28:40.500Z,60.00
2018-09-03T14:31:10.359Z,60.35
2018-09-03T14:33:40.399Z,60.61
2018-09-03T14:36:10.331Z,61.37
2018-09-03T14:38:40.328Z,61.37
2018-09-03T14:41:10.194Z,61.52
2018-09-03T14:43:40.098Z,61.48
2018-09-03T14:46:10.062Z,62.17
2018-09-03T14:48:46.487Z,60.92
2018-09-03T14:51:16.563Z,61.35
2018-09-03T14:53:48.031Z,61.33
2018-09-03T14:56:18.111Z,62.02
2018-09-03T14:58:47.931Z,61.43
2018-09-03T15:01:18.665Z,61.74
2018-09-03T15:03:48.548Z,62.00
2018-09-03T15:06:18.570Z,61.42
2018-09-03T15:08:48.569Z,61.85
2018-09-03T15:11:18.694Z,63.45
2018-09-03T15:13:52.764Z,62.32
2018-09-03T15:16:23.669Z,63.72
2018-09-03T15:18:53.693Z,63.25
2018-09-03T15:21:23.665Z,64.59
2018-09-03T15:23:53.836Z,65.05
2018-09-03T15:26:23.867Z,65.60
2018-09-03T15:28:53.986Z,66.57
2018-09-03T15:31:23.909Z,66.08
2018-09-03T15:33:53.880Z,65.33
2018-09-03T15:36:24.353Z,64.71
2018-09-03T15:38:54.369Z,65.30
2018-09-03T15:41:24.278Z,65.07
2018-09-03T15:43:54.364Z,64.85
2018-09-03T15:46:24.435Z,64.80
2018-09-03T15:48:54.677Z,64.16
2018-09-03T15:51:24.477Z,65.13
2018-09-03T15:53:54.543Z,64.45
2018-09-03T15:56:24.807Z,64.11
2018-09-03T15:58:55.098Z,63.56
2018-09-03T16:01:25.347Z,63.92
2018-09-03T16:03:55.673Z,64.51
2018-09-03T16:06:25.720Z,63.96
2018-09-03T16:08:56.041Z,64.75
2018-09-03T16:11:26.084Z,65.15
2018-09-03T16:13:56.251Z,64.69
2018-09-03T16:16:26.235Z,65.05
2018-09-03T16:18:56.065Z,65.97
2018-09-03T16:21:26.115Z,65.89
2018-09-03T16:23:56.155Z,66.23
2018-09-03T16:26:26.385Z,66.84
2018-09-03T16:28:56.503Z,67.03
2018-09-03T16:31:26.476Z,66.52
2018-09-03T16:33:56.753Z,66.66
2018-09-03T16:36:26.703Z,67.02
2018-09-03T16:38:56.726Z,67.19
2018-09-03T16:41:26.679Z,67.31
2018-09-03T16:43:56.631Z,67.25
2018-09-03T16:46:26.424Z,67.58
2018-09-03T16:48:56.472Z,67.52
2018-09-03T16:51:26.263Z,67.36
2018-09-03T16:53:56.151Z,67.58
2018-09-03T16:56:26.122Z,68.64
2018-09-03T16:58:56.605Z,67.95
2018-09-03T17:01:27.045Z,68.44
2018-09-03T17:03:56.808Z,68.76
2018-09-03T17:06:26.753Z,67.87
2018-09-03T17:08:56.839Z,67.21
2018-09-03T17:11:26.985Z,67.38
2018-09-03T17:13:57.170Z,68.02
2018-09-03T17:16:27.071Z,66.97
2018-09-03T17:18:57.150Z,66.85
2018-09-03T17:21:27.015Z,67.26
2018-09-03T17:23:57.100Z,67.41
2018-09-03T17:26:27.144Z,67.43
2018-09-03T17:29:03.878Z,66.13
2018-09-03T17:31:33.747Z,65.88
2018-09-03T17:34:03.766Z,66.17
2018-09-03T17:36:34.259Z,66.05
2018-09-03T17:39:05.348Z,67.38
2018-09-03T17:41:35.960Z,67.81
2018-09-03T17:44:06.066Z,67.36
2018-09-03T17:46:36.212Z,67.37
2018-09-03T17:49:06.697Z,67.03
2018-09-03T17:51:37.036Z,67.02
2018-09-03T17:54:07.665Z,67.84
2018-09-03T17:56:37.994Z,68.56
2018-09-03T17:59:08.467Z,68.55
2018-09-03T18:01:38.581Z,68.90
2018-09-03T18:04:09.512Z,68.36
2018-09-03T18:06:39.683Z,68.27
2018-09-03T18:09:10.341Z,68.30
2018-09-03T18:11:40.652Z,69.21
2018-09-03T18:14:10.948Z,69.75
2018-09-03T18:16:41.333Z,69.54
2018-09-03T18:19:13.783Z,69.65
2018-09-03T18:21:44.118Z,69.34
2018-09-03T18:24:14.174Z,70.46
2018-09-03T18:26:44.629Z,69.77
2018-09-03T18:29:15.083Z,70.13
2018-09-03T18:31:45.873Z,70.31
2018-09-03T18:34:17.737Z,71.18
2018-09-03T18:36:47.703Z,70.51
2018-09-03T18:39:18.291Z,70.72
2018-09-03T18:41:49.190Z,70.95
2018-09-03T18:44:19.628Z,71.96
2018-09-03T18:46:50.033Z,72.35
2018-09-03T18:49:19.932Z,71.54
2018-09-03T18:51:50.689Z,71.59
2018-09-03T18:54:20.706Z,71.47
2018-09-03T18:56:51.363Z,71.94
2018-09-03T18:59:21.747Z,72.09
2018-09-03T19:01:52.189Z,72.22
2018-09-03T19:04:22.999Z,71.72
2018-09-03T19:06:53.004Z,72.33
2018-09-03T19:09:23.825Z,72.32
2018-09-03T19:11:54.285Z,72.75
2018-09-03T19:14:24.724Z,72.05
2018-09-03T19:16:55.416Z,72.06
2018-09-03T19:19:26.182Z,72.54
2018-09-03T19:21:56.787Z,72.78
2018-09-03T19:24:27.034Z,72.44
2018-09-03T19:26:57.615Z,72.22
2018-09-03T19:29:27.955Z,73.18
2018-09-03T19:31:58.736Z,73.31
2018-09-03T19:34:28.859Z,73.49
2018-09-03T19:36:59.641Z,73.58
2018-09-03T19:39:30.139Z,73.42
2018-09-03T19:42:00.807Z,73.74
2018-09-03T19:44:31.454Z,72.94
2018-09-03T19:47:02.374Z,73.37
2018-09-03T19:49:33.163Z,73.91
2018-09-03T19:52:03.563Z,73.17
2018-09-03T19:54:34.021Z,73.37
2018-09-03T19:57:07.058Z,73.73
2018-09-03T19:59:39.008Z,73.43
2018-09-03T20:02:09.294Z,73.34
2018-09-03T20:04:39.383Z,73.19
2018-09-03T20:07:09.835Z,73.36
2018-09-03T20:09:40.054Z,74.18
2018-09-03T20:12:10.306Z,73.31
2018-09-03T20:14:40.508Z,73.08
2018-09-03T20:17:11.140Z,74.06
2018-09-03T20:19:41.108Z,73.42
2018-09-03T20:22:16.951Z,73.87
2018-09-03T20:24:47.186Z,73.93
2018-09-03T20:27:17.352Z,74.20
2018-09-03T20:29:47.977Z,73.82
2018-09-03T20:32:18.079Z,74.54
2018-09-03T20:34:48.274Z,74.54
2018-09-03T20:37:18.755Z,74.30
2018-09-03T20:39:49.213Z,74.41
2018-09-03T20:42:19.400Z,74.48
2018-09-03T20:44:49.924Z,74.86
2018-09-03T20:47:20.160Z,75.48
2018-09-03T20:49:50.596Z,74.86
2018-09-03T20:52:21.197Z,75.17
2018-09-03T20:54:51.475Z,75.43
2018-09-03T20:57:21.965Z,76.06
2018-09-03T20:59:52.153Z,75.61
2018-09-03T21:02:22.412Z,76.26
2018-09-03T21:04:52.834Z,76.71
2018-09-03T21:07:24.911Z,76.36
2018-09-03T21:09:55.147Z,75.96
2018-09-03T21:12:25.743Z,75.90
2018-09-03T21:14:56.292Z,75.98
2018-09-03T21:17:26.964Z,76.12
2018-09-03T21:19:57.498Z,76.40
2018-09-03T21:22:28.428Z,76.95
2018-09-03T21:24:59.291Z,77.10
2018-09-03T21:27:29.477Z,76.45
2018-09-03T21:29:59.731Z,76.66
2018-09-03T21:32:30.107Z,76.41
2018-09-03T21:35:00.380Z,76.55
2018-09-03T21:37:30.817Z,76.75
2018-09-03T21:40:01.613Z,77.61
2018-09-03T21:42:31.494Z,76.24
2018-09-03T21:45:01.532Z,77.09
2018-09-03T21:47:31.452Z,76.45
2018-09-03T21:50:01.523Z,76.04
2018-09-03T21:52:31.472Z,76.39
2018-09-03T21:55:01.758Z,76.62
2018-09-03T21:57:31.833Z,76.10
2018-09-03T22:00:01.731Z,76.13
2018-09-03T22:02:31.733Z,77.11
2018-09-03T22:05:01.707Z,77.31
2018-09-03T22:07:31.773Z,76.36
2018-09-03T22:10:01.803Z,77.47
2018-09-03T22:12:31.817Z,77.71
2018-09-03T22:15:01.829Z,77.70
2018-09-03T22:17:32.004Z,77.33
2018-09-03T22:20:02.054Z,77.24
2018-09-03T22:22:32.138Z,78.06
2018-09-03T22:25:02.310Z,77.85
2018-09-03T22:27:32.307Z,78.06
2018-09-03T22:30:02.379Z,78.71
2018-09-03T22:32:32.459Z,79.03
2018-09-03T22:35:02.627Z,78.94
2018-09-03T22:37:32.719Z,79.21
2018-09-03T22:40:02.700Z,79.43
2018-09-03T22:42:32.620Z,78.60
2018-09-03T22:45:02.495Z,79.48
2018-09-03T22:47:32.449Z,79.72
2018-09-03T22:50:02.567Z,78.85
2018-09-03T22:52:32.771Z,78.93
2018-09-03T22:55:02.669Z,79.01
2018-09-03T22:57:32.786Z,80.33
2018-09-03T23:00:03.043Z,80.65
2018-09-03T23:02:36.954Z,80.90
2018-09-03T23:05:07.201Z,80.10
2018-09-03T23:07:37.171Z,80.90
2018-09-03T23:10:07.700Z,80.59
2018-09-03T23:12:37.684Z,80.57
2018-09-03T23:15:08.506Z,80.34
2018-09-03T23:17:38.352Z,80.41
2018-09-03T23:20:08.406Z,80.54
2018-09-03T23:22:38.577Z,80.43
2018-09-03T23:25:08.672Z,81.49
2018-09-03T23:27:38.532Z,80.97
2018-09-03T23:30:08.599Z,81.11
2018-09-03T23:32:38.648Z,81.42
2018-09-03T23:35:08.784Z,81.68
2018-09-03T23:37:38.638Z,81.42
2018-09-03T23:40:08.564Z,81.32
2018-09-03T23:42:38.917Z,82.04
2018-09-03T23:45:08.943Z,81.11
2018-09-03T23:47:38.905Z,80.72
2018-09-03T23:50:09.123Z,81.90
2018-09-03T23:52:39.060Z,82.31
2018-09-03T23:55:09.070Z,81.27
2018-09-03T23:57:38.915Z,81.69
